»·PEaware :: CGHFO L22-KTOA

CGHFO :: L22-KTOA

FLIGHT INFORMATION

Flight Status: Arrived
Operator: Unknown
More flights by this operator :: More flights under this callsign
Pilot: Basie S. (26327)
Aircraft: BEECH AIRCRAFT SUPER KING AIR COMMUTER
(BE20)
More flights by this aircraft type
Origin: L22 Yucca Valley
United States
Destination: KTOA Zamperini
United States
More flights between these airports :: More routes between these airports
Route: +PSP V388 DEWAY HDF V283 SLI
File this flight plan on PilotEdge
Remarks: VFR DEPARTURE
Altitude:
(Current/Filed)
14,000ft
Speed:
(Current/Filed)
285kts
Departed: 11-Apr-20 01:50 PM
Arrived: 11-Apr-20 02:29 PM
Distance/Time
Traveled:
98nm/0:39
Distance/Time
To Go:
Arrived

Flight Plot

Page will automatically refresh every two minutes.

Flight plan parsing failed; only flown route is shown


Map Options




Map Legend


Flown Route
Filed Route
Departure Airport
Arrival Airport
Navaid (VOR, NDB)
Fix

Horizontal Profiles

Position Reports

Time Latitude Longitude Heading Altitude Ground
Speed
11-Apr-20 13:28 34.130981 -116.401863 335 3227ft 0kts
11-Apr-20 13:29 34.130981 -116.401863 335 3227ft 0kts
11-Apr-20 13:30 34.130981 -116.401863 335 3227ft 0kts
11-Apr-20 13:31 34.130981 -116.401863 335 3227ft 0kts
11-Apr-20 13:32 34.130981 -116.401863 335 3227ft 0kts
11-Apr-20 13:33 34.130981 -116.401863 335 3227ft 0kts
11-Apr-20 13:34 34.130981 -116.401863 335 3227ft 0kts
11-Apr-20 13:35 34.131250 -116.402049 304 3227ft 1kts
11-Apr-20 13:36 34.129379 -116.408322 250 3227ft 16kts
11-Apr-20 13:37 34.128222 -116.412032 252 3227ft 7kts
11-Apr-20 13:38 34.127633 -116.412984 258 3227ft 0kts
11-Apr-20 13:39 34.127633 -116.412984 258 3227ft 0kts
11-Apr-20 13:40 34.127633 -116.412984 258 3227ft 0kts
11-Apr-20 13:41 34.127633 -116.412984 258 3227ft 0kts
11-Apr-20 13:42 34.127633 -116.412984 258 3227ft 0kts
11-Apr-20 13:43 34.127633 -116.412984 258 3227ft 0kts
11-Apr-20 13:44 34.127633 -116.412984 258 3227ft 0kts
11-Apr-20 13:44 34.127633 -116.412984 258 3227ft 0kts
11-Apr-20 13:45 34.127633 -116.412984 258 3227ft 0kts
11-Apr-20 13:46 34.127633 -116.412984 258 3227ft 0kts
11-Apr-20 13:48 34.127633 -116.412984 258 3227ft 0kts
11-Apr-20 13:49 34.127631 -116.412993 257 3227ft 1kts
11-Apr-20 13:49 34.132427 -116.397810 68 3271ft 149kts
11-Apr-20 13:50 34.145080 -116.345417 71 5023ft 181kts
11-Apr-20 13:51 34.156712 -116.285112 72 6453ft 179kts
11-Apr-20 13:52 34.165897 -116.229179 86 7801ft 166kts
11-Apr-20 13:53 34.125010 -116.223007 224 8589ft 185kts
11-Apr-20 13:54 34.083339 -116.261666 217 9460ft 192kts
11-Apr-20 13:55 34.038026 -116.297747 215 10246ft 198kts
11-Apr-20 13:56 33.991350 -116.334460 214 10986ft 202kts
11-Apr-20 13:57 33.943780 -116.371847 213 11677ft 206kts
11-Apr-20 13:58 33.894107 -116.410844 213 12038ft 226kts
11-Apr-20 13:59 33.882565 -116.479081 294 12036ft 232kts
11-Apr-20 14:00 33.902226 -116.556481 294 12029ft 248kts
11-Apr-20 14:01 33.922801 -116.637671 294 12028ft 255kts
11-Apr-20 14:02 33.943570 -116.719917 293 12032ft 257kts
11-Apr-20 14:03 33.951320 -116.807683 278 12052ft 264kts
11-Apr-20 14:04 33.954504 -116.895879 277 11995ft 261kts
11-Apr-20 14:05 33.956403 -116.982606 260 11979ft 263kts
11-Apr-20 14:06 33.905401 -117.047014 223 11992ft 269kts
11-Apr-20 14:07 33.849583 -117.106965 222 11992ft 266kts
11-Apr-20 14:08 33.794818 -117.165957 226 11992ft 262kts
11-Apr-20 14:09 33.776776 -117.245729 273 11530ft 244kts
11-Apr-20 14:10 33.777542 -117.323651 274 10693ft 223kts
11-Apr-20 14:11 33.778375 -117.396655 274 9884ft 219kts
11-Apr-20 14:12 33.779242 -117.472807 274 9112ft 235kts
11-Apr-20 14:13 33.779970 -117.552965 273 8320ft 242kts
11-Apr-20 14:14 33.780636 -117.634394 273 7525ft 244kts
11-Apr-20 14:15 33.781235 -117.715224 273 6974ft 233kts
11-Apr-20 14:16 33.781768 -117.788891 273 6988ft 207kts
11-Apr-20 14:17 33.748827 -117.843689 230 6831ft 209kts
11-Apr-20 14:18 33.710085 -117.898547 230 6025ft 213kts
11-Apr-20 14:19 33.700012 -117.965676 269 5231ft 209kts
11-Apr-20 14:20 33.701007 -118.027262 267 4428ft 167kts
11-Apr-20 14:21 33.701290 -118.079721 267 3657ft 150kts
11-Apr-20 14:22 33.701526 -118.129665 267 2818ft 148kts
11-Apr-20 14:23 33.702085 -118.179078 277 2012ft 150kts
11-Apr-20 14:24 33.725170 -118.220854 309 2004ft 151kts
11-Apr-20 14:25 33.750782 -118.259403 309 1600ft 145kts
11-Apr-20 14:26 33.776858 -118.298679 309 905ft 155kts
11-Apr-20 14:27 33.802672 -118.337660 307 107ft 123kts
11-Apr-20 14:28 33.807605 -118.345990 221 106ft 0kts
11-Apr-20 14:29 33.807605 -118.345990 221 106ft 0kts
11-Apr-20 14:30 33.806147 -118.346729 153 106ft 11kts
11-Apr-20 14:31 33.804638 -118.345941 148 106ft 4kts
11-Apr-20 14:32 33.804607 -118.345915 143 106ft 0kts

Navigation Log

Ident Type
Flight plan parsing failed, navigation log unavailable